sensor_id;sensor_type;location;lat;lon;timestamp;temperature;humidity
40638;DHT22;26336;44.696;10.622;2024-01-11T00:02:43;2.90;99.90
40638;DHT22;26336;44.696;10.622;2024-01-11T00:05:47;2.90;99.90
40638;DHT22;26336;44.696;10.622;2024-01-11T00:08:51;3.00;99.90
40638;DHT22;26336;44.696;10.622;2024-01-11T00:11:55;2.90;99.90
40638;DHT22;26336;44.696;10.622;2024-01-11T00:14:59;2.90;99.90
40638;DHT22;26336;44.696;10.622;2024-01-11T00:18:03;2.90;99.90
40638;DHT22;26336;44.696;10.622;2024-01-11T00:21:07;2.90;99.90
40638;DHT22;26336;44.696;10.622;2024-01-11T00:24:11;2.90;99.90
40638;DHT22;26336;44.696;10.622;2024-01-11T00:27:15;2.90;99.90
40638;DHT22;26336;44.696;10.622;2024-01-11T00:30:19;2.90;99.90
40638;DHT22;26336;44.696;10.622;2024-01-11T00:33:23;3.00;99.90
40638;DHT22;26336;44.696;10.622;2024-01-11T00:36:27;2.90;99.90
40638;DHT22;26336;44.696;10.622;2024-01-11T00:39:32;2.90;99.90
40638;DHT22;26336;44.696;10.622;2024-01-11T00:42:36;3.00;99.90
40638;DHT22;26336;44.696;10.622;2024-01-11T00:45:39;3.00;99.90
40638;DHT22;26336;44.696;10.622;2024-01-11T00:48:43;3.00;99.90
40638;DHT22;26336;44.696;10.622;2024-01-11T00:51:47;3.00;99.90
40638;DHT22;26336;44.696;10.622;2024-01-11T00:54:51;3.00;99.90
40638;DHT22;26336;44.696;10.622;2024-01-11T00:57:55;3.00;99.90
40638;DHT22;26336;44.696;10.622;2024-01-11T01:00:59;3.00;99.90
40638;DHT22;26336;44.696;10.622;2024-01-11T01:04:03;3.00;99.90
40638;DHT22;26336;44.696;10.622;2024-01-11T01:07:07;3.00;99.90
40638;DHT22;26336;44.696;10.622;2024-01-11T01:10:11;3.00;99.90
40638;DHT22;26336;44.696;10.622;2024-01-11T01:13:15;3.00;99.90
40638;DHT22;26336;44.696;10.622;2024-01-11T01:16:19;3.00;99.90
40638;DHT22;26336;44.696;10.622;2024-01-11T01:19:23;3.00;99.90
40638;DHT22;26336;44.696;10.622;2024-01-11T01:22:27;3.00;99.90
40638;DHT22;26336;44.696;10.622;2024-01-11T01:25:31;3.00;99.90
40638;DHT22;26336;44.696;10.622;2024-01-11T01:28:36;3.00;99.90
40638;DHT22;26336;44.696;10.622;2024-01-11T01:31:40;3.00;99.90
40638;DHT22;26336;44.696;10.622;2024-01-11T01:34:45;3.00;99.90
40638;DHT22;26336;44.696;10.622;2024-01-11T01:37:49;3.10;99.90
40638;DHT22;26336;44.696;10.622;2024-01-11T01:40:53;3.10;99.90
40638;DHT22;26336;44.696;10.622;2024-01-11T01:43:57;3.10;99.90
40638;DHT22;26336;44.696;10.622;2024-01-11T01:47:02;3.20;99.90
40638;DHT22;26336;44.696;10.622;2024-01-11T01:50:10;3.20;99.90
40638;DHT22;26336;44.696;10.622;2024-01-11T01:53:14;3.30;99.90
40638;DHT22;26336;44.696;10.622;2024-01-11T01:56:20;3.30;99.90
40638;DHT22;26336;44.696;10.622;2024-01-11T01:59:26;3.30;99.90
40638;DHT22;26336;44.696;10.622;2024-01-11T02:02:31;3.30;99.90
40638;DHT22;26336;44.696;10.622;2024-01-11T02:05:37;3.30;99.90
40638;DHT22;26336;44.696;10.622;2024-01-11T02:08:43;3.30;99.90
40638;DHT22;26336;44.696;10.622;2024-01-11T02:11:48;3.30;99.90
40638;DHT22;26336;44.696;10.622;2024-01-11T02:14:53;3.30;99.90
40638;DHT22;26336;44.696;10.622;2024-01-11T02:17:58;3.30;99.90
40638;DHT22;26336;44.696;10.622;2024-01-11T02:21:05;3.30;99.90
40638;DHT22;26336;44.696;10.622;2024-01-11T02:24:10;3.30;99.90
40638;DHT22;26336;44.696;10.622;2024-01-11T02:27:14;3.30;99.90
40638;DHT22;26336;44.696;10.622;2024-01-11T02:30:18;3.30;99.90
40638;DHT22;26336;44.696;10.622;2024-01-11T02:33:22;3.30;99.90
40638;DHT22;26336;44.696;10.622;2024-01-11T02:36:26;3.30;99.90
40638;DHT22;26336;44.696;10.622;2024-01-11T02:39:31;3.30;99.90
40638;DHT22;26336;44.696;10.622;2024-01-11T02:42:35;3.30;99.90
40638;DHT22;26336;44.696;10.622;2024-01-11T02:45:39;3.30;99.90
40638;DHT22;26336;44.696;10.622;2024-01-11T02:48:43;3.30;99.90
40638;DHT22;26336;44.696;10.622;2024-01-11T02:51:47;3.30;99.90
40638;DHT22;26336;44.696;10.622;2024-01-11T02:54:51;3.40;99.90
40638;DHT22;26336;44.696;10.622;2024-01-11T02:57:56;3.40;99.90
40638;DHT22;26336;44.696;10.622;2024-01-11T03:00:59;3.40;99.90
40638;DHT22;26336;44.696;10.622;2024-01-11T03:04:04;3.50;99.90
40638;DHT22;26336;44.696;10.622;2024-01-11T03:07:08;3.40;99.90
40638;DHT22;26336;44.696;10.622;2024-01-11T03:10:12;3.40;99.90
40638;DHT22;26336;44.696;10.622;2024-01-11T03:13:16;3.40;99.90
40638;DHT22;26336;44.696;10.622;2024-01-11T03:16:20;3.40;99.90
40638;DHT22;26336;44.696;10.622;2024-01-11T03:19:24;3.40;99.90
40638;DHT22;26336;44.696;10.622;2024-01-11T03:22:28;3.40;99.90
40638;DHT22;26336;44.696;10.622;2024-01-11T03:25:32;3.40;99.90
40638;DHT22;26336;44.696;10.622;2024-01-11T03:28:36;3.40;99.90
40638;DHT22;26336;44.696;10.622;2024-01-11T03:31:40;3.40;99.90
40638;DHT22;26336;44.696;10.622;2024-01-11T03:34:46;3.40;99.90
40638;DHT22;26336;44.696;10.622;2024-01-11T03:37:50;3.40;99.90
40638;DHT22;26336;44.696;10.622;2024-01-11T03:40:55;3.30;99.90
40638;DHT22;26336;44.696;10.622;2024-01-11T03:43:59;3.30;99.90
40638;DHT22;26336;44.696;10.622;2024-01-11T03:47:02;3.30;99.90
40638;DHT22;26336;44.696;10.622;2024-01-11T03:50:07;3.30;99.90
40638;DHT22;26336;44.696;10.622;2024-01-11T03:53:11;3.30;99.90
40638;DHT22;26336;44.696;10.622;2024-01-11T03:56:14;3.30;99.90
40638;DHT22;26336;44.696;10.622;2024-01-11T03:59:18;3.30;99.90
40638;DHT22;26336;44.696;10.622;2024-01-11T04:02:22;3.30;99.90
40638;DHT22;26336;44.696;10.622;2024-01-11T04:05:26;3.30;99.90
40638;DHT22;26336;44.696;10.622;2024-01-11T04:08:30;3.40;99.90
40638;DHT22;26336;44.696;10.622;2024-01-11T04:11:34;3.40;99.90
40638;DHT22;26336;44.696;10.622;2024-01-11T04:14:38;3.40;99.90
40638;DHT22;26336;44.696;10.622;2024-01-11T04:17:45;3.50;99.90
40638;DHT22;26336;44.696;10.622;2024-01-11T04:20:49;3.40;99.90
40638;DHT22;26336;44.696;10.622;2024-01-11T04:23:54;3.50;99.90
40638;DHT22;26336;44.696;10.622;2024-01-11T04:26:58;3.40;99.90
40638;DHT22;26336;44.696;10.622;2024-01-11T04:30:02;3.50;99.90
40638;DHT22;26336;44.696;10.622;2024-01-11T04:33:06;3.50;99.90
40638;DHT22;26336;44.696;10.622;2024-01-11T04:36:11;3.50;99.90
40638;DHT22;26336;44.696;10.622;2024-01-11T04:39:15;3.50;99.90
40638;DHT22;26336;44.696;10.622;2024-01-11T04:42:19;3.40;99.90
40638;DHT22;26336;44.696;10.622;2024-01-11T04:45:23;3.40;99.90
40638;DHT22;26336;44.696;10.622;2024-01-11T04:48:27;3.40;99.90
40638;DHT22;26336;44.696;10.622;2024-01-11T04:51:31;3.40;99.90
40638;DHT22;26336;44.696;10.622;2024-01-11T04:54:35;3.40;99.90
40638;DHT22;26336;44.696;10.622;2024-01-11T04:57:39;3.40;99.90
40638;DHT22;26336;44.696;10.622;2024-01-11T05:00:43;3.40;99.90
40638;DHT22;26336;44.696;10.622;2024-01-11T05:03:48;3.40;99.90
40638;DHT22;26336;44.696;10.622;2024-01-11T05:06:53;3.40;99.90
40638;DHT22;26336;44.696;10.622;2024-01-11T05:09:57;3.30;99.90
40638;DHT22;26336;44.696;10.622;2024-01-11T05:13:00;3.30;99.90
40638;DHT22;26336;44.696;10.622;2024-01-11T05:16:05;3.30;99.90
40638;DHT22;26336;44.696;10.622;2024-01-11T05:19:09;3.30;99.90
40638;DHT22;26336;44.696;10.622;2024-01-11T05:22:13;3.40;99.90
40638;DHT22;26336;44.696;10.622;2024-01-11T05:25:16;3.40;99.90
40638;DHT22;26336;44.696;10.622;2024-01-11T05:28:20;3.30;99.90
40638;DHT22;26336;44.696;10.622;2024-01-11T05:31:24;3.30;99.90
40638;DHT22;26336;44.696;10.622;2024-01-11T05:34:28;3.30;99.90
40638;DHT22;26336;44.696;10.622;2024-01-11T05:37:32;3.30;99.90
40638;DHT22;26336;44.696;10.622;2024-01-11T05:40:36;3.20;99.90
40638;DHT22;26336;44.696;10.622;2024-01-11T05:43:41;3.20;99.90
40638;DHT22;26336;44.696;10.622;2024-01-11T05:46:46;3.20;99.90
40638;DHT22;26336;44.696;10.622;2024-01-11T05:49:50;3.20;99.90
40638;DHT22;26336;44.696;10.622;2024-01-11T05:52:54;3.20;99.90
40638;DHT22;26336;44.696;10.622;2024-01-11T05:56:00;3.20;99.90
40638;DHT22;26336;44.696;10.622;2024-01-11T05:59:04;3.10;99.90
40638;DHT22;26336;44.696;10.622;2024-01-11T06:02:08;3.10;99.90
40638;DHT22;26336;44.696;10.622;2024-01-11T06:05:12;3.10;99.90
40638;DHT22;26336;44.696;10.622;2024-01-11T06:08:16;3.10;99.90
40638;DHT22;26336;44.696;10.622;2024-01-11T06:11:20;3.10;99.90
40638;DHT22;26336;44.696;10.622;2024-01-11T06:14:24;3.10;99.90
40638;DHT22;26336;44.696;10.622;2024-01-11T06:17:28;3.10;99.90
40638;DHT22;26336;44.696;10.622;2024-01-11T06:20:33;3.10;99.90
40638;DHT22;26336;44.696;10.622;2024-01-11T06:23:36;3.00;99.90
40638;DHT22;26336;44.696;10.622;2024-01-11T06:26:40;3.00;99.90
40638;DHT22;26336;44.696;10.622;2024-01-11T06:29:44;3.00;99.90
40638;DHT22;26336;44.696;10.622;2024-01-11T06:32:48;3.00;99.90
40638;DHT22;26336;44.696;10.622;2024-01-11T06:35:52;3.00;99.90
40638;DHT22;26336;44.696;10.622;2024-01-11T06:38:56;3.00;99.90
40638;DHT22;26336;44.696;10.622;2024-01-11T06:42:02;3.00;99.90
40638;DHT22;26336;44.696;10.622;2024-01-11T06:45:06;2.90;99.90
40638;DHT22;26336;44.696;10.622;2024-01-11T06:48:12;2.90;99.90
40638;DHT22;26336;44.696;10.622;2024-01-11T06:51:20;2.90;99.90
40638;DHT22;26336;44.696;10.622;2024-01-11T06:54:24;2.80;99.90
40638;DHT22;26336;44.696;10.622;2024-01-11T06:57:29;2.80;99.90
40638;DHT22;26336;44.696;10.622;2024-01-11T07:00:32;2.80;99.90
40638;DHT22;26336;44.696;10.622;2024-01-11T07:03:37;2.80;99.90
40638;DHT22;26336;44.696;10.622;2024-01-11T07:06:42;2.80;99.90
40638;DHT22;26336;44.696;10.622;2024-01-11T07:09:46;2.90;99.90
40638;DHT22;26336;44.696;10.622;2024-01-11T07:12:53;2.90;99.90
40638;DHT22;26336;44.696;10.622;2024-01-11T07:15:57;2.90;99.90
40638;DHT22;26336;44.696;10.622;2024-01-11T07:19:02;2.90;99.90
40638;DHT22;26336;44.696;10.622;2024-01-11T07:22:06;2.90;99.90
40638;DHT22;26336;44.696;10.622;2024-01-11T07:25:10;2.80;99.90
40638;DHT22;26336;44.696;10.622;2024-01-11T07:28:14;2.80;99.90
40638;DHT22;26336;44.696;10.622;2024-01-11T07:31:18;2.80;99.90
40638;DHT22;26336;44.696;10.622;2024-01-11T07:34:22;2.90;99.90
40638;DHT22;26336;44.696;10.622;2024-01-11T07:37:28;2.90;99.90
40638;DHT22;26336;44.696;10.622;2024-01-11T07:40:32;2.90;99.90
40638;DHT22;26336;44.696;10.622;2024-01-11T07:43:36;2.90;99.90
40638;DHT22;26336;44.696;10.622;2024-01-11T07:46:40;2.90;99.90
40638;DHT22;26336;44.696;10.622;2024-01-11T07:49:44;2.90;99.90
40638;DHT22;26336;44.696;10.622;2024-01-11T07:52:48;2.90;99.90
40638;DHT22;26336;44.696;10.622;2024-01-11T07:55:52;3.00;99.90
40638;DHT22;26336;44.696;10.622;2024-01-11T07:58:56;3.00;99.90
40638;DHT22;26336;44.696;10.622;2024-01-11T08:02:01;3.10;99.90
40638;DHT22;26336;44.696;10.622;2024-01-11T08:05:05;3.10;99.90
40638;DHT22;26336;44.696;10.622;2024-01-11T08:08:09;3.10;99.90
40638;DHT22;26336;44.696;10.622;2024-01-11T08:11:13;3.20;99.90
40638;DHT22;26336;44.696;10.622;2024-01-11T08:14:18;3.20;99.90
40638;DHT22;26336;44.696;10.622;2024-01-11T08:17:22;3.30;99.90
40638;DHT22;26336;44.696;10.622;2024-01-11T08:20:27;3.30;99.90
40638;DHT22;26336;44.696;10.622;2024-01-11T08:23:31;3.40;99.90
40638;DHT22;26336;44.696;10.622;2024-01-11T08:26:36;3.50;99.90
40638;DHT22;26336;44.696;10.622;2024-01-11T08:29:40;3.60;99.90
40638;DHT22;26336;44.696;10.622;2024-01-11T08:32:44;3.60;99.90
40638;DHT22;26336;44.696;10.622;2024-01-11T08:35:48;3.70;99.90
40638;DHT22;26336;44.696;10.622;2024-01-11T08:38:52;3.80;99.90
40638;DHT22;26336;44.696;10.622;2024-01-11T08:41:57;3.90;99.90
40638;DHT22;26336;44.696;10.622;2024-01-11T08:45:03;4.00;99.90
40638;DHT22;26336;44.696;10.622;2024-01-11T08:48:14;4.10;99.90
40638;DHT22;26336;44.696;10.622;2024-01-11T08:51:19;4.20;99.90
40638;DHT22;26336;44.696;10.622;2024-01-11T08:54:22;4.30;99.90
40638;DHT22;26336;44.696;10.622;2024-01-11T08:57:27;4.40;99.90
40638;DHT22;26336;44.696;10.622;2024-01-11T09:00:31;4.50;99.90
40638;DHT22;26336;44.696;10.622;2024-01-11T09:03:35;4.50;99.90
40638;DHT22;26336;44.696;10.622;2024-01-11T09:06:39;4.60;99.90
40638;DHT22;26336;44.696;10.622;2024-01-11T09:09:43;4.70;99.90
40638;DHT22;26336;44.696;10.622;2024-01-11T09:12:47;4.80;99.90
40638;DHT22;26336;44.696;10.622;2024-01-11T09:15:52;4.90;99.90
40638;DHT22;26336;44.696;10.622;2024-01-11T09:18:56;5.00;99.90
40638;DHT22;26336;44.696;10.622;2024-01-11T09:22:00;5.10;99.90
40638;DHT22;26336;44.696;10.622;2024-01-11T09:25:04;5.20;99.90
40638;DHT22;26336;44.696;10.622;2024-01-11T09:28:10;5.30;99.90
40638;DHT22;26336;44.696;10.622;2024-01-11T09:31:14;5.50;99.90
40638;DHT22;26336;44.696;10.622;2024-01-11T09:34:19;5.60;99.90
40638;DHT22;26336;44.696;10.622;2024-01-11T09:37:23;5.70;99.90
40638;DHT22;26336;44.696;10.622;2024-01-11T09:40:27;5.80;99.90
40638;DHT22;26336;44.696;10.622;2024-01-11T09:43:34;6.00;99.90
40638;DHT22;26336;44.696;10.622;2024-01-11T09:46:38;6.10;99.90
40638;DHT22;26336;44.696;10.622;2024-01-11T09:49:44;6.30;99.40
40638;DHT22;26336;44.696;10.622;2024-01-11T09:52:50;6.30;99.30
40638;DHT22;26336;44.696;10.622;2024-01-11T09:55:55;6.40;98.20
40638;DHT22;26336;44.696;10.622;2024-01-11T09:58:59;6.50;97.70
40638;DHT22;26336;44.696;10.622;2024-01-11T10:02:03;6.50;97.50
40638;DHT22;26336;44.696;10.622;2024-01-11T10:05:12;6.60;97.30
40638;DHT22;26336;44.696;10.622;2024-01-11T10:08:21;6.60;97.70
40638;DHT22;26336;44.696;10.622;2024-01-11T10:11:25;6.60;98.00
40638;DHT22;26336;44.696;10.622;2024-01-11T10:14:30;6.70;97.80
40638;DHT22;26336;44.696;10.622;2024-01-11T10:17:38;6.70;97.60
40638;DHT22;26336;44.696;10.622;2024-01-11T10:20:44;6.80;97.40
40638;DHT22;26336;44.696;10.622;2024-01-11T10:23:51;6.90;96.90
40638;DHT22;26336;44.696;10.622;2024-01-11T10:26:56;6.90;97.00
40638;DHT22;26336;44.696;10.622;2024-01-11T10:30:01;6.90;96.50
40638;DHT22;26336;44.696;10.622;2024-01-11T10:33:11;7.00;96.70
40638;DHT22;26336;44.696;10.622;2024-01-11T10:36:31;7.00;97.00
40638;DHT22;26336;44.696;10.622;2024-01-11T10:40:05;7.00;96.60
40638;DHT22;26336;44.696;10.622;2024-01-11T10:43:24;7.10;96.60
40638;DHT22;26336;44.696;10.622;2024-01-11T10:46:29;7.20;96.90
40638;DHT22;26336;44.696;10.622;2024-01-11T10:49:39;7.20;97.00
40638;DHT22;26336;44.696;10.622;2024-01-11T10:52:54;7.10;97.00
40638;DHT22;26336;44.696;10.622;2024-01-11T10:56:04;7.20;97.10
40638;DHT22;26336;44.696;10.622;2024-01-11T10:59:32;7.10;96.50
40638;DHT22;26336;44.696;10.622;2024-01-11T11:02:52;7.10;96.70
40638;DHT22;26336;44.696;10.622;2024-01-11T11:06:26;7.20;96.60
40638;DHT22;26336;44.696;10.622;2024-01-11T11:09:34;7.20;96.30
40638;DHT22;26336;44.696;10.622;2024-01-11T11:12:48;7.20;96.20
40638;DHT22;26336;44.696;10.622;2024-01-11T11:15:54;7.30;96.10
40638;DHT22;26336;44.696;10.622;2024-01-11T11:19:07;7.30;96.00
40638;DHT22;26336;44.696;10.622;2024-01-11T11:22:13;7.40;96.20
40638;DHT22;26336;44.696;10.622;2024-01-11T11:25:34;7.40;96.10
40638;DHT22;26336;44.696;10.622;2024-01-11T11:28:41;7.40;95.90
40638;DHT22;26336;44.696;10.622;2024-01-11T11:31:45;7.40;95.80
40638;DHT22;26336;44.696;10.622;2024-01-11T11:34:55;7.40;95.80
40638;DHT22;26336;44.696;10.622;2024-01-11T11:38:00;7.50;96.00
40638;DHT22;26336;44.696;10.622;2024-01-11T11:41:04;7.50;96.00
40638;DHT22;26336;44.696;10.622;2024-01-11T11:44:12;7.50;95.60
40638;DHT22;26336;44.696;10.622;2024-01-11T11:47:21;7.40;95.10
40638;DHT22;26336;44.696;10.622;2024-01-11T11:50:26;7.40;95.10
40638;DHT22;26336;44.696;10.622;2024-01-11T11:53:33;7.40;95.40
40638;DHT22;26336;44.696;10.622;2024-01-11T11:56:37;7.40;95.30
40638;DHT22;26336;44.696;10.622;2024-01-11T11:59:42;7.30;95.90
40638;DHT22;26336;44.696;10.622;2024-01-11T12:02:55;7.30;96.10
40638;DHT22;26336;44.696;10.622;2024-01-11T12:06:00;7.30;95.80
40638;DHT22;26336;44.696;10.622;2024-01-11T12:09:04;7.30;95.50
40638;DHT22;26336;44.696;10.622;2024-01-11T12:12:09;7.30;96.00
40638;DHT22;26336;44.696;10.622;2024-01-11T12:15:13;7.40;96.10
40638;DHT22;26336;44.696;10.622;2024-01-11T12:18:17;7.30;96.30
40638;DHT22;26336;44.696;10.622;2024-01-11T12:21:43;7.40;96.40
40638;DHT22;26336;44.696;10.622;2024-01-11T12:25:04;7.40;96.30
40638;DHT22;26336;44.696;10.622;2024-01-11T12:28:08;7.40;96.40
40638;DHT22;26336;44.696;10.622;2024-01-11T12:31:13;7.50;96.60
40638;DHT22;26336;44.696;10.622;2024-01-11T12:34:20;7.50;96.70
40638;DHT22;26336;44.696;10.622;2024-01-11T12:37:24;7.50;96.50
40638;DHT22;26336;44.696;10.622;2024-01-11T12:40:35;7.50;96.60
40638;DHT22;26336;44.696;10.622;2024-01-11T12:43:41;7.60;96.30
40638;DHT22;26336;44.696;10.622;2024-01-11T12:46:48;7.50;96.50
40638;DHT22;26336;44.696;10.622;2024-01-11T12:49:53;7.50;96.20
40638;DHT22;26336;44.696;10.622;2024-01-11T12:53:09;7.50;96.10
40638;DHT22;26336;44.696;10.622;2024-01-11T12:56:15;7.50;96.40
40638;DHT22;26336;44.696;10.622;2024-01-11T12:59:25;7.40;96.40
40638;DHT22;26336;44.696;10.622;2024-01-11T13:02:32;7.40;96.40
40638;DHT22;26336;44.696;10.622;2024-01-11T13:05:36;7.40;96.20
40638;DHT22;26336;44.696;10.622;2024-01-11T13:08:40;7.40;96.10
40638;DHT22;26336;44.696;10.622;2024-01-11T13:11:45;7.40;96.10
40638;DHT22;26336;44.696;10.622;2024-01-11T13:14:49;7.40;96.20
40638;DHT22;26336;44.696;10.622;2024-01-11T13:17:55;7.40;96.50
40638;DHT22;26336;44.696;10.622;2024-01-11T13:21:00;7.40;96.30
40638;DHT22;26336;44.696;10.622;2024-01-11T13:24:06;7.40;96.40
40638;DHT22;26336;44.696;10.622;2024-01-11T13:27:13;7.40;96.40
40638;DHT22;26336;44.696;10.622;2024-01-11T13:30:18;7.40;96.50
40638;DHT22;26336;44.696;10.622;2024-01-11T13:33:23;7.40;96.10
40638;DHT22;26336;44.696;10.622;2024-01-11T13:36:27;7.40;95.90
40638;DHT22;26336;44.696;10.622;2024-01-11T13:39:34;7.50;95.70
40638;DHT22;26336;44.696;10.622;2024-01-11T13:42:38;7.50;95.90
40638;DHT22;26336;44.696;10.622;2024-01-11T13:45:42;7.50;95.90
40638;DHT22;26336;44.696;10.622;2024-01-11T13:48:50;7.50;95.90
40638;DHT22;26336;44.696;10.622;2024-01-11T13:51:57;7.60;95.60
40638;DHT22;26336;44.696;10.622;2024-01-11T13:55:01;7.60;95.60
40638;DHT22;26336;44.696;10.622;2024-01-11T13:58:05;7.60;95.60
40638;DHT22;26336;44.696;10.622;2024-01-11T14:01:09;7.50;95.40
40638;DHT22;26336;44.696;10.622;2024-01-11T14:04:13;7.50;95.60
40638;DHT22;26336;44.696;10.622;2024-01-11T14:07:17;7.60;95.90
40638;DHT22;26336;44.696;10.622;2024-01-11T14:10:21;7.60;96.00
40638;DHT22;26336;44.696;10.622;2024-01-11T14:13:26;7.60;95.90
40638;DHT22;26336;44.696;10.622;2024-01-11T14:16:30;7.60;95.90
40638;DHT22;26336;44.696;10.622;2024-01-11T14:19:34;7.60;96.00
40638;DHT22;26336;44.696;10.622;2024-01-11T14:22:39;7.60;96.00
40638;DHT22;26336;44.696;10.622;2024-01-11T14:25:43;7.50;96.30
40638;DHT22;26336;44.696;10.622;2024-01-11T14:28:47;7.50;96.20
40638;DHT22;26336;44.696;10.622;2024-01-11T14:31:51;7.50;96.10
40638;DHT22;26336;44.696;10.622;2024-01-11T14:34:54;7.50;96.10
40638;DHT22;26336;44.696;10.622;2024-01-11T14:37:59;7.50;96.10
40638;DHT22;26336;44.696;10.622;2024-01-11T14:41:03;7.50;96.20
40638;DHT22;26336;44.696;10.622;2024-01-11T14:44:07;7.50;96.40
40638;DHT22;26336;44.696;10.622;2024-01-11T14:47:13;7.40;96.70
40638;DHT22;26336;44.696;10.622;2024-01-11T14:50:19;7.40;96.60
40638;DHT22;26336;44.696;10.622;2024-01-11T14:53:23;7.40;96.60
40638;DHT22;26336;44.696;10.622;2024-01-11T14:56:28;7.40;96.80
40638;DHT22;26336;44.696;10.622;2024-01-11T14:59:32;7.30;97.00
40638;DHT22;26336;44.696;10.622;2024-01-11T15:02:36;7.30;97.10
40638;DHT22;26336;44.696;10.622;2024-01-11T15:05:41;7.30;97.20
40638;DHT22;26336;44.696;10.622;2024-01-11T15:08:47;7.30;97.20
40638;DHT22;26336;44.696;10.622;2024-01-11T15:11:52;7.30;97.40
40638;DHT22;26336;44.696;10.622;2024-01-11T15:14:56;7.30;97.40
40638;DHT22;26336;44.696;10.622;2024-01-11T15:18:00;7.30;97.30
40638;DHT22;26336;44.696;10.622;2024-01-11T15:21:08;7.40;97.20
40638;DHT22;26336;44.696;10.622;2024-01-11T15:24:12;7.40;97.00
40638;DHT22;26336;44.696;10.622;2024-01-11T15:27:16;7.30;97.10
40638;DHT22;26336;44.696;10.622;2024-01-11T15:30:20;7.30;97.10
40638;DHT22;26336;44.696;10.622;2024-01-11T15:33:26;7.30;97.00
40638;DHT22;26336;44.696;10.622;2024-01-11T15:36:30;7.30;97.10
40638;DHT22;26336;44.696;10.622;2024-01-11T15:39:37;7.30;97.20
40638;DHT22;26336;44.696;10.622;2024-01-11T15:42:41;7.20;97.30
40638;DHT22;26336;44.696;10.622;2024-01-11T15:45:46;7.20;97.40
40638;DHT22;26336;44.696;10.622;2024-01-11T15:48:50;7.20;97.40
40638;DHT22;26336;44.696;10.622;2024-01-11T15:51:54;7.20;97.50
40638;DHT22;26336;44.696;10.622;2024-01-11T15:54:58;7.20;97.50
40638;DHT22;26336;44.696;10.622;2024-01-11T15:58:03;7.10;97.50
40638;DHT22;26336;44.696;10.622;2024-01-11T16:01:07;7.10;98.30
40638;DHT22;26336;44.696;10.622;2024-01-11T16:04:12;7.10;98.40
40638;DHT22;26336;44.696;10.622;2024-01-11T16:07:16;7.00;98.90
40638;DHT22;26336;44.696;10.622;2024-01-11T16:10:21;7.00;99.50
40638;DHT22;26336;44.696;10.622;2024-01-11T16:13:25;6.90;99.90
40638;DHT22;26336;44.696;10.622;2024-01-11T16:16:34;6.80;99.90
40638;DHT22;26336;44.696;10.622;2024-01-11T16:19:39;6.80;99.90
40638;DHT22;26336;44.696;10.622;2024-01-11T16:22:43;6.70;99.90
40638;DHT22;26336;44.696;10.622;2024-01-11T16:25:47;6.60;99.90
40638;DHT22;26336;44.696;10.622;2024-01-11T16:28:51;6.50;99.90
40638;DHT22;26336;44.696;10.622;2024-01-11T16:31:54;6.50;99.90
40638;DHT22;26336;44.696;10.622;2024-01-11T16:34:58;6.40;99.90
40638;DHT22;26336;44.696;10.622;2024-01-11T16:38:02;6.30;99.90
40638;DHT22;26336;44.696;10.622;2024-01-11T16:41:09;6.30;99.90
40638;DHT22;26336;44.696;10.622;2024-01-11T16:44:13;6.20;99.90
40638;DHT22;26336;44.696;10.622;2024-01-11T16:47:17;6.20;99.90
40638;DHT22;26336;44.696;10.622;2024-01-11T16:50:21;6.10;99.90
40638;DHT22;26336;44.696;10.622;2024-01-11T16:53:25;6.10;99.90
40638;DHT22;26336;44.696;10.622;2024-01-11T16:56:29;6.00;99.90
40638;DHT22;26336;44.696;10.622;2024-01-11T16:59:34;5.90;99.90
40638;DHT22;26336;44.696;10.622;2024-01-11T17:02:39;5.90;99.90
40638;DHT22;26336;44.696;10.622;2024-01-11T17:05:43;5.90;99.90
40638;DHT22;26336;44.696;10.622;2024-01-11T17:08:47;5.80;99.90
40638;DHT22;26336;44.696;10.622;2024-01-11T17:11:51;5.80;99.90
40638;DHT22;26336;44.696;10.622;2024-01-11T17:14:55;5.70;99.90
40638;DHT22;26336;44.696;10.622;2024-01-11T17:17:59;5.70;99.90
40638;DHT22;26336;44.696;10.622;2024-01-11T17:21:03;5.70;99.90
40638;DHT22;26336;44.696;10.622;2024-01-11T17:24:07;5.60;99.90
40638;DHT22;26336;44.696;10.622;2024-01-11T17:27:12;5.60;99.90
40638;DHT22;26336;44.696;10.622;2024-01-11T17:30:18;5.60;99.90
40638;DHT22;26336;44.696;10.622;2024-01-11T17:33:22;5.40;99.90
40638;DHT22;26336;44.696;10.622;2024-01-11T17:36:26;5.40;99.90
40638;DHT22;26336;44.696;10.622;2024-01-11T17:39:31;5.30;99.90
40638;DHT22;26336;44.696;10.622;2024-01-11T17:42:35;5.30;99.90
40638;DHT22;26336;44.696;10.622;2024-01-11T17:45:47;5.30;99.90
40638;DHT22;26336;44.696;10.622;2024-01-11T17:48:54;5.30;99.90
40638;DHT22;26336;44.696;10.622;2024-01-11T17:51:59;5.30;99.90
40638;DHT22;26336;44.696;10.622;2024-01-11T17:55:04;5.30;99.90
40638;DHT22;26336;44.696;10.622;2024-01-11T17:58:16;5.30;99.90
40638;DHT22;26336;44.696;10.622;2024-01-11T18:01:24;5.30;99.90
40638;DHT22;26336;44.696;10.622;2024-01-11T18:04:29;5.30;99.90
40638;DHT22;26336;44.696;10.622;2024-01-11T18:07:34;5.20;99.90
40638;DHT22;26336;44.696;10.622;2024-01-11T18:10:46;5.20;99.90
40638;DHT22;26336;44.696;10.622;2024-01-11T18:13:50;5.10;99.90
40638;DHT22;26336;44.696;10.622;2024-01-11T18:16:58;5.10;99.90
40638;DHT22;26336;44.696;10.622;2024-01-11T18:20:01;5.00;99.90
40638;DHT22;26336;44.696;10.622;2024-01-11T18:23:08;4.90;99.90
40638;DHT22;26336;44.696;10.622;2024-01-11T18:26:14;4.90;99.90
40638;DHT22;26336;44.696;10.622;2024-01-11T18:29:20;4.90;99.90
40638;DHT22;26336;44.696;10.622;2024-01-11T18:32:27;4.90;99.90
40638;DHT22;26336;44.696;10.622;2024-01-11T18:35:31;4.90;99.90
40638;DHT22;26336;44.696;10.622;2024-01-11T18:38:35;4.90;99.90
40638;DHT22;26336;44.696;10.622;2024-01-11T18:41:40;4.90;99.90
40638;DHT22;26336;44.696;10.622;2024-01-11T18:44:47;4.90;99.90
40638;DHT22;26336;44.696;10.622;2024-01-11T18:47:51;4.90;99.90
40638;DHT22;26336;44.696;10.622;2024-01-11T18:50:55;4.90;99.90
40638;DHT22;26336;44.696;10.622;2024-01-11T18:53:59;4.90;99.90
40638;DHT22;26336;44.696;10.622;2024-01-11T18:57:03;4.90;99.90
40638;DHT22;26336;44.696;10.622;2024-01-11T19:00:08;4.80;99.90
40638;DHT22;26336;44.696;10.622;2024-01-11T19:03:13;4.80;99.90
40638;DHT22;26336;44.696;10.622;2024-01-11T19:06:19;4.80;99.90
40638;DHT22;26336;44.696;10.622;2024-01-11T19:09:24;4.70;99.90
40638;DHT22;26336;44.696;10.622;2024-01-11T19:12:30;4.70;99.90
40638;DHT22;26336;44.696;10.622;2024-01-11T19:15:34;4.60;99.90
40638;DHT22;26336;44.696;10.622;2024-01-11T19:18:42;4.60;99.90
40638;DHT22;26336;44.696;10.622;2024-01-11T19:21:46;4.50;99.90
40638;DHT22;26336;44.696;10.622;2024-01-11T19:24:51;4.50;99.90
40638;DHT22;26336;44.696;10.622;2024-01-11T19:27:55;4.50;99.90
40638;DHT22;26336;44.696;10.622;2024-01-11T19:31:04;4.50;99.90